createdAt,value
2022-08-11T00:00:22.759Z,100902.19
2022-08-11T00:05:56.465Z,100883.34
2022-08-11T00:11:21.576Z,100893.38
2022-08-11T00:16:46.833Z,100896.38
2022-08-11T00:22:10.154Z,100904.81
2022-08-11T00:27:34.649Z,100861.22
2022-08-11T00:32:59.323Z,100908.38
2022-08-11T00:38:26.626Z,100924.91
2022-08-11T00:43:52.487Z,100923.31
2022-08-11T00:49:31.059Z,100920.13
2022-08-11T00:55:24.521Z,100896.38
2022-08-11T01:01:29.866Z,100927.69
2022-08-11T01:08:02.473Z,100939.59
2022-08-11T01:13:38.281Z,100946.06
2022-08-11T01:19:19.030Z,100955.81
2022-08-11T01:24:52.608Z,100957.97
2022-08-11T01:30:41.568Z,100926.50
2022-08-11T01:36:25.949Z,100976.13
2022-08-11T01:42:39.728Z,100914.69
2022-08-11T01:48:32.045Z,100940.31
2022-08-11T01:54:14.736Z,100987.53
2022-08-11T01:59:49.242Z,100999.16
2022-08-11T02:05:43.312Z,101002.34
2022-08-11T02:11:30.872Z,101009.38
2022-08-11T02:17:22.826Z,101009.91
2022-08-11T02:24:04.832Z,101011.81
2022-08-11T02:29:32.901Z,101010.44
2022-08-11T02:35:03.022Z,101006.69
2022-08-11T02:40:43.010Z,100995.38
2022-08-11T02:46:26.323Z,101011.00
2022-08-11T02:52:26.849Z,101003.44
2022-08-11T02:58:03.234Z,100977.28
2022-08-11T03:03:37.952Z,100960.06
2022-08-11T03:09:33.588Z,101035.28
2022-08-11T03:15:44.630Z,101038.78
2022-08-11T03:22:03.244Z,101043.38
2022-08-11T03:27:46.104Z,101029.34
2022-08-11T03:34:08.011Z,101053.63
2022-08-11T03:39:51.091Z,101061.94
2022-08-11T03:45:51.066Z,101063.22
2022-08-11T03:51:51.865Z,100997.94
2022-08-11T03:57:46.381Z,101080.06
2022-08-11T04:03:53.043Z,101081.84
2022-08-11T04:09:48.912Z,101083.28
2022-08-11T04:16:11.401Z,100964.78
2022-08-11T04:22:14.325Z,101072.13
2022-08-11T04:28:28.561Z,101078.00
2022-08-11T04:34:15.356Z,101084.72
2022-08-11T04:39:55.819Z,101085.63
2022-08-11T04:45:39.262Z,101078.00
2022-08-11T04:57:07.629Z,100984.81
2022-08-11T05:02:50.728Z,101094.25
2022-08-11T05:08:27.934Z,101081.47
2022-08-11T05:14:32.001Z,101085.13
2022-08-11T05:20:12.569Z,101082.63
2022-08-11T05:26:43.160Z,101075.97
2022-08-11T05:31:58.518Z,101071.59
2022-08-11T05:37:27.187Z,101084.91
2022-08-11T05:43:10.543Z,101089.25
2022-08-11T05:48:55.121Z,101083.13
2022-08-11T05:54:36.485Z,101091.38
2022-08-11T06:00:11.019Z,101052.88
2022-08-11T06:05:44.129Z,101079.38
2022-08-11T06:11:07.484Z,101090.94
2022-08-11T06:16:30.226Z,101026.13
2022-08-11T06:21:55.877Z,101070.09
2022-08-11T06:27:23.006Z,101039.38
2022-08-11T06:32:46.743Z,101078.25
2022-08-11T06:38:18.569Z,101063.03
2022-08-11T06:43:56.052Z,101076.00
2022-08-11T06:49:39.576Z,101054.69
2022-08-11T06:55:57.417Z,101072.75
2022-08-11T07:02:01.382Z,101085.28
2022-08-11T07:08:33.538Z,101094.00
2022-08-11T07:14:20.034Z,101085.66
2022-08-11T07:20:06.392Z,101092.91
2022-08-11T07:25:49.971Z,101074.63
2022-08-11T07:31:17.440Z,101085.56
2022-08-11T07:36:50.731Z,101092.56
2022-08-11T07:42:23.121Z,101075.75
2022-08-11T07:48:06.900Z,101072.84
2022-08-11T07:53:31.483Z,101080.41
2022-08-11T07:59:13.495Z,101068.16
2022-08-11T08:04:55.741Z,101064.78
2022-08-11T08:10:38.434Z,101078.47
2022-08-11T08:16:19.875Z,101068.06
2022-08-11T08:21:45.373Z,101062.94
2022-08-11T08:27:08.231Z,101060.97
2022-08-11T08:32:32.504Z,101044.50
2022-08-11T08:37:54.858Z,101050.09
2022-08-11T08:43:18.949Z,101051.97
2022-08-11T08:48:44.462Z,101046.38
2022-08-11T08:54:15.363Z,101035.50
2022-08-11T08:59:48.433Z,101039.34
2022-08-11T09:05:18.923Z,101042.69
2022-08-11T09:10:41.565Z,100994.75
2022-08-11T09:16:06.595Z,100991.75
2022-08-11T09:21:48.319Z,101004.53
2022-08-11T09:27:11.746Z,101011.03
2022-08-11T09:32:38.102Z,100997.88
2022-08-11T09:38:49.394Z,101013.59
2022-08-11T09:44:32.409Z,101022.28
2022-08-11T09:50:03.807Z,100999.69
2022-08-11T09:55:36.713Z,100998.22
2022-08-11T10:01:02.654Z,100989.28
2022-08-11T10:06:43.745Z,101015.97
2022-08-11T10:12:13.662Z,101012.69
2022-08-11T10:18:00.117Z,101020.03
2022-08-11T10:24:00.198Z,100987.34
2022-08-11T10:30:06.434Z,101011.22
2022-08-11T10:35:33.284Z,100992.81
2022-08-11T10:41:29.537Z,101010.69
2022-08-11T10:47:11.460Z,101001.16
2022-08-11T10:52:53.338Z,100991.22
2022-08-11T10:58:34.610Z,100974.00
2022-08-11T11:04:00.561Z,100980.78
2022-08-11T11:09:45.444Z,100983.56
2022-08-11T11:15:27.055Z,100956.53
2022-08-11T11:20:58.772Z,100959.31
2022-08-11T11:26:41.448Z,100952.13
2022-08-11T11:32:37.469Z,100960.88
2022-08-11T11:38:04.850Z,100959.16
2022-08-11T11:43:27.225Z,100961.28
2022-08-11T11:48:49.806Z,100956.34
2022-08-11T11:54:19.175Z,100952.44
2022-08-11T12:00:11.779Z,100940.44
2022-08-11T12:05:37.085Z,100952.97
2022-08-11T12:11:21.739Z,100941.16
2022-08-11T12:16:46.466Z,100946.09
2022-08-11T12:22:28.421Z,100945.22
2022-08-11T12:27:51.115Z,100940.25
2022-08-11T12:33:14.896Z,100893.03
2022-08-11T12:38:51.767Z,100942.00
2022-08-11T12:44:32.154Z,100929.28
2022-08-11T12:50:23.126Z,100933.41
2022-08-11T12:56:07.829Z,100921.19
2022-08-11T13:01:48.540Z,100922.47
2022-08-11T13:07:10.887Z,100912.25
2022-08-11T13:12:49.363Z,100906.59
2022-08-11T13:18:12.839Z,100862.06
2022-08-11T13:23:37.144Z,100886.72
2022-08-11T13:28:59.611Z,100896.03
2022-08-11T13:34:25.707Z,100892.75
2022-08-11T13:39:48.201Z,100894.19
2022-08-11T13:45:11.128Z,100885.69
2022-08-11T13:51:12.622Z,100890.84
2022-08-11T13:56:59.658Z,100884.41
2022-08-11T14:02:32.224Z,100883.56
2022-08-11T14:08:03.679Z,100853.53
2022-08-11T14:13:42.237Z,100835.38
2022-08-11T14:19:14.833Z,100853.00
2022-08-11T14:24:50.002Z,100795.56
2022-08-11T14:30:32.692Z,100807.81
2022-08-11T14:35:55.078Z,100853.84
2022-08-11T14:41:36.222Z,100841.25
2022-08-11T14:47:23.233Z,100844.19
2022-08-11T14:52:57.534Z,100858.38
2022-08-11T14:58:23.925Z,100857.59
2022-08-11T15:04:34.032Z,100838.75
2022-08-11T15:09:29.202Z,100836.72
2022-08-11T15:15:10.729Z,100844.50
2022-08-11T15:20:53.473Z,100818.66
2022-08-11T15:26:49.541Z,100837.81
2022-08-11T15:32:23.891Z,100840.28
2022-08-11T15:37:47.758Z,100824.25
2022-08-11T15:43:39.871Z,100841.38
2022-08-11T15:49:05.808Z,100838.88
2022-08-11T15:54:31.770Z,100813.50
2022-08-11T16:00:12.609Z,100839.19
2022-08-11T16:05:52.848Z,100836.69
2022-08-11T16:11:16.163Z,100796.69
2022-08-11T16:16:39.826Z,100830.03
2022-08-11T16:22:10.344Z,100826.06
2022-08-11T16:27:36.021Z,100820.75
2022-08-11T16:33:01.373Z,100802.78
2022-08-11T16:38:44.655Z,100826.47
2022-08-11T16:44:36.999Z,100844.47
2022-08-11T16:50:00.499Z,100829.88
2022-08-11T16:55:52.826Z,100827.91
2022-08-11T17:01:06.960Z,100847.03
2022-08-11T17:06:47.494Z,100855.41
2022-08-11T17:12:31.779Z,100812.13
2022-08-11T17:17:56.152Z,100855.34
2022-08-11T17:23:37.291Z,100847.88
2022-08-11T17:29:04.073Z,100846.75
2022-08-11T17:34:45.413Z,100853.81
2022-08-11T17:40:14.293Z,100867.38
2022-08-11T17:45:54.806Z,100848.88
2022-08-11T17:51:38.671Z,100869.59
2022-08-11T17:57:22.621Z,100864.06
2022-08-11T18:03:08.150Z,100859.22
2022-08-11T18:08:53.402Z,100857.38
2022-08-11T18:14:37.046Z,100853.63
2022-08-11T18:20:17.236Z,100822.66
2022-08-11T18:26:06.477Z,100834.94
2022-08-11T18:31:53.391Z,100841.81
2022-08-11T18:37:55.484Z,100857.69
2022-08-11T18:43:40.235Z,100846.38
2022-08-11T18:49:27.295Z,100842.84
2022-08-11T18:55:38.275Z,100828.03
2022-08-11T19:01:21.229Z,100771.75
2022-08-11T19:07:05.157Z,100791.28
2022-08-11T19:12:51.065Z,100827.97
2022-08-11T19:18:40.027Z,100837.72
2022-08-11T19:24:22.735Z,100834.41
2022-08-11T19:30:13.399Z,100845.88
2022-08-11T19:35:56.547Z,100859.16
2022-08-11T19:41:56.815Z,100881.78
2022-08-11T19:47:40.038Z,100829.34
2022-08-11T19:53:21.610Z,100843.56
2022-08-11T19:59:03.744Z,100880.38
2022-08-11T20:04:46.043Z,100883.66
2022-08-11T20:10:38.930Z,100879.03
2022-08-11T20:16:20.928Z,100890.91
2022-08-11T20:22:07.510Z,100896.41
2022-08-11T20:27:55.126Z,100898.88
2022-08-11T20:33:37.654Z,100906.28
2022-08-11T20:39:20.148Z,100905.22
2022-08-11T20:45:02.651Z,100897.06
2022-08-11T20:50:45.844Z,100912.53
2022-08-11T20:56:28.191Z,100905.00
2022-08-11T21:02:10.822Z,100911.59
2022-08-11T21:07:57.297Z,100923.38
2022-08-11T21:13:43.694Z,100911.72
2022-08-11T21:20:00.533Z,100909.53
2022-08-11T21:25:38.431Z,100899.31
2022-08-11T21:31:19.278Z,100905.66
2022-08-11T21:37:01.952Z,100897.81
2022-08-11T21:42:43.653Z,100919.59
2022-08-11T21:48:26.055Z,100919.66
2022-08-11T21:54:07.654Z,100913.72
2022-08-11T22:00:01.979Z,100920.69
2022-08-11T22:05:53.530Z,100915.53
2022-08-11T22:11:36.230Z,100915.09
2022-08-11T22:17:17.208Z,100921.56
2022-08-11T22:22:59.007Z,100918.38
2022-08-11T22:28:39.330Z,100914.50
2022-08-11T22:34:19.107Z,100911.34
2022-08-11T22:40:02.441Z,100928.03
2022-08-11T22:45:45.821Z,100919.94
2022-08-11T22:51:27.652Z,100944.06
2022-08-11T22:57:09.206Z,100940.31
2022-08-11T23:02:49.235Z,100941.19
2022-08-11T23:08:29.445Z,100936.13
2022-08-11T23:14:10.647Z,100937.81
2022-08-11T23:20:07.294Z,100935.50
2022-08-11T23:25:52.649Z,100942.22
2022-08-11T23:31:44.417Z,100941.47
2022-08-11T23:37:31.717Z,100953.09
2022-08-11T23:43:12.132Z,100950.69
2022-08-11T23:48:53.035Z,100950.72
2022-08-11T23:54:37.459Z,100948.69
